UPSVAC Airport Information Service

Taiwan Taoyuan International Airport

ICAO: RCTP Country: Taiwan
Latitude: 25.0777 Longitude: 121.233
Latest Arrival : UPS3757 (RKSI-RCTP) Latest Departure : UPS3665 (RCTP-EDDK)


WX CaptureLIVE
Data provided by noaa.gov | Fetched at 23:22:06

METAR : RCTP 112300Z 22010KT 9999 FEW015 SCT200 29/23 Q1008 NOSIG RMK A2979

TAF : RCTP 111700Z 1118/1224 23010KT 9999 FEW015 TEMPO 1118/1124 18005KT TEMPO 1202/1208 24018KT BECMG 1209/1211 23005KT TEMPO 1216/1222 18007KT


Runway Data for RCTP
Data provided by openaviationdata.com

Runway ID Mag Var Hdg Length Elevation Surface ILS Freq ILS Id ILS Slope
5 -3 52° 12020 ft 107 ft Concrete 111.1 ITIA 3
6 -3 52° 11001 ft 107 ft Concrete 110.7 ICKS 3
23 -3 232° 12020 ft 107 ft Concrete 109.3 ITYA 3
24 -3 232° 11001 ft 107 ft Concrete 111.9 ICJN 3

Taiwan Taoyuan International Airport, Taiwan
Use only for reference purposes



Not for navigational purposes.